Flight Track Log - Related Links

Times and Time Zones

All times are in EDT time to prevent confusion due to time zone crossing. See the SWA3833 flight status page for this flight to view local times or setup timezone preferences in your user account.

Time Position Orientation Groundspeed Altitude Reporting Facility
EDT Latitude Longitude Course Direction KTS MPH feet Rate Location/Type
Sat 04:01:58 PM 42.7256 -73.8031 190° South 135 155 1,700  Level Boston Center
Sat 04:02:28 PM 42.7053 -73.8081 190° South 158 182 2,500 2,229 Climbing Boston Center
Sat 04:03:08 PM 42.7064 -73.8522 272° West 208 239 4,300 3,300 Climbing Boston Center
Sat 04:04:08 PM 42.7533 -73.9003 323° Northwest 212 244 8,000 3,669 Climbing Boston Center
Sat 04:05:09 PM 42.7736 -73.9714 291° West 204 235 11,700 3,312 Climbing Boston Center
Sat 04:06:13 PM 42.7650 -74.0281 258° West 200 230 14,900 2,226 Climbing Boston Center
Sat 04:07:13 PM 42.6861 -74.0125 172° South 276 318 16,300 1,770 Climbing Boston Center
Sat 04:08:15 PM 42.5919 -73.9969 173° South 342 394 18,500 2,146 Climbing Boston Center
Sat 04:09:16 PM 42.5047 -73.9814 173° South 356 410 20,700 2,311 Climbing Boston Center
Sat 04:10:17 PM 42.4019 -73.9617 172° South 368 423 23,200 2,281 Climbing Boston Center
Sat 04:11:17 PM 42.2936 -73.9406 172° South 383 441 25,300 2,083 Climbing Boston Center
Sat 04:12:18 PM 42.1611 -73.9178 173° South 405 466 27,400 1,869 Climbing Boston Center
Sat 04:13:19 PM 42.0472 -73.8958 172° South 414 476 29,100 1,645 Climbing Boston Center
Sat 04:14:22 PM 41.9286 -73.8736 172° South 428 493 30,800 1,694 Climbing Boston Center
Sat 04:15:23 PM 41.8153 -73.8839 184° South 416 479 32,600 1,623 Climbing Boston Center
Sat 04:16:24 PM 41.7067 -73.9350 199° South 394 453 34,100 1,672 Climbing Boston Center
Sat 04:17:25 PM 41.6042 -73.9872 201° Southwest 395 455 36,000 1,438 Climbing Boston Center
Sat 04:18:25 PM 41.5047 -74.0389 201° Southwest 389 448 37,000 992 Climbing Boston Center
Sat 04:19:26 PM 41.4000 -74.0911 201° Southwest 398 458 38,000 426 Climbing Boston Center
Sat 04:20:46 PM 41.2503 -74.1681 201° Southwest 398 458 38,000  Level New York Center
Sat 04:21:46 PM 41.1447 -74.2153 199° South 398 458 38,000  Level New York Center
Sat 04:22:46 PM 41.0411 -74.2650 200° South 398 458 38,000  Level New York Center
Sat 04:23:46 PM 40.9375 -74.3200 202° Southwest 398 458 38,000  Level New York Center
Sat 04:24:46 PM 40.8317 -74.3719 200° South 398 458 38,000  Level New York Center
Sat 04:25:46 PM 40.7303 -74.4214 200° South 398 458 38,000 350 Level New York Center
Sat 04:26:46 PM 40.6264 -74.4733 201° Southwest 398 458 38,700 750 Climbing New York Center
Sat 04:27:46 PM 40.5206 -74.5250 200° South 398 458 39,500 396 Climbing New York Center
Sat 04:30:03 PM 40.2889 -74.6369 200° South 394 453 40,000 152 Climbing Washington Center
Sat 04:31:03 PM 40.1850 -74.6900 201° Southwest 394 453 40,000  Level Washington Center
Sat 04:32:01 PM 40.0814 -74.7400 200° South 394 453 40,000  Level Washington Center
Sat 04:33:01 PM 39.9794 -74.7847 199° South 394 453 40,000  Level Washington Center
Sat 04:34:02 PM 39.8883 -74.8317 202° Southwest 394 453 40,000  Level Washington Center
Sat 04:35:03 PM 39.7739 -74.8897 201° Southwest 394 453 40,000  Level Washington Center
Sat 04:36:01 PM 39.6825 -74.9336 200° South 394 453 40,000  Level Washington Center
Sat 04:37:01 PM 39.5786 -74.9939 204° Southwest 399 459 40,000  Level Washington Center
Sat 04:38:02 PM 39.4811 -75.0539 205° Southwest 394 453 40,000 -49 Level Washington Center
Sat 04:39:03 PM 39.3856 -75.1136 206° Southwest 394 453 39,900  Descending Washington Center
Sat 04:40:03 PM 39.2856 -75.1706 204° Southwest 394 453 40,000 51 Climbing Washington Center
Sat 04:41:01 PM 39.1858 -75.2247 203° Southwest 394 453 40,000  Level Washington Center
Sat 04:42:01 PM 39.0858 -75.2894 207° Southwest 394 453 40,000  Level Washington Center
Sat 04:43:01 PM 38.9858 -75.3458 204° Southwest 394 453 40,000  Level Washington Center
Sat 04:44:02 PM 38.8861 -75.4022 204° Southwest 399 459 40,000  Level Washington Center
Sat 04:45:02 PM 38.7861 -75.4611 205° Southwest 399 459 40,000  Level Washington Center
Sat 04:46:03 PM 38.6839 -75.5200 204° Southwest 399 459 40,000  Level Washington Center
Sat 04:47:03 PM 38.5839 -75.5783 205° Southwest 399 459 40,000  Level Washington Center
Sat 04:48:01 PM 38.4797 -75.6367 204° Southwest 399 459 40,000  Level Washington Center
Sat 04:49:02 PM 38.3794 -75.6975 205° Southwest 399 459 40,000  Level Washington Center
Sat 04:50:03 PM 38.2647 -75.7608 203° Southwest 404 465 40,000  Level Washington Center
Sat 04:51:03 PM 38.1625 -75.8189 204° Southwest 404 465 40,000  Level Washington Center
Sat 04:52:01 PM 38.0603 -75.8739 203° Southwest 404 465 40,000  Level Washington Center
Sat 04:53:01 PM 37.9600 -75.9314 204° Southwest 399 459 40,000  Level Washington Center
Sat 04:54:02 PM 37.8556 -75.9917 205° Southwest 399 459 40,000  Level Washington Center
Sat 04:55:02 PM 37.7531 -76.0542 206° Southwest 399 459 40,000  Level Washington Center
Sat 04:56:03 PM 37.6486 -76.1164 205° Southwest 405 466 40,000  Level Washington Center
Sat 04:57:01 PM 37.5397 -76.1681 201° Southwest 410 472 40,000  Level Washington Center
Sat 04:58:02 PM 37.4353 -76.2275 204° Southwest 416 479 40,000  Level Washington Center
Sat 04:59:03 PM 37.3306 -76.2839 203° Southwest 416 479 40,000  Level Washington Center
Sat 05:00:01 PM 37.2239 -76.3456 205° Southwest 421 484 40,000  Level Washington Center
Sat 05:01:01 PM 37.1192 -76.4019 203° Southwest 421 484 40,000  Level Washington Center
Sat 05:02:02 PM 37.0125 -76.4606 204° Southwest 421 484 40,000  Level Washington Center
Sat 05:03:02 PM 36.9078 -76.5192 204° Southwest 421 484 40,000  Level Washington Center
Sat 05:04:03 PM 36.7989 -76.5672 199° South 421 484 40,000  Level Washington Center
Sat 05:05:03 PM 36.6900 -76.6175 200° South 421 484 40,000  Level Washington Center
Sat 05:06:03 PM 36.5769 -76.6628 198° South 426 490 40,000  Level Washington Center
Sat 05:07:01 PM 36.4617 -76.7075 197° South 426 490 40,000  Level Washington Center
Sat 05:08:02 PM 36.3508 -76.7525 198° South 426 490 40,000  Level Washington Center
Sat 05:09:03 PM 36.2375 -76.7972 198° South 426 490 40,000  Level Washington Center
Sat 05:10:01 PM 36.1244 -76.8417 198° South 426 490 40,000  Level Washington Center
Sat 05:11:02 PM 36.0239 -76.8839 199° South 426 490 40,000  Level Washington Center
Sat 05:12:03 PM 35.9150 -76.9283 198° South 426 490 40,000  Level Washington Center
Sat 05:13:01 PM 35.8058 -76.9725 198° South 426 490 40,000  Level Washington Center
Sat 05:14:02 PM 35.6969 -77.0142 197° South 421 484 40,000  Level Washington Center
Sat 05:15:03 PM 35.5817 -77.0606 198° South 416 479 40,000  Level Washington Center
Sat 05:16:03 PM 35.4706 -77.1069 199° South 416 479 40,000  Level Washington Center
Sat 05:17:03 PM 35.3614 -77.1483 197° South 416 479 40,000  Level Washington Center
Sat 05:18:01 PM 35.2522 -77.1919 198° South 416 479 40,000  Level Washington Center
Sat 05:19:02 PM 35.1433 -77.2331 197° South 416 479 40,000  Level Washington Center
Sat 05:20:03 PM 35.0322 -77.2764 198° South 416 479 40,000  Level Washington Center
Sat 05:21:03 PM 34.9208 -77.3197 198° South 416 479 40,000  Level Washington Center
Sat 05:22:01 PM 34.8222 -77.3631 200° South 422 486 40,000  Level Washington Center
Sat 05:23:01 PM 34.7089 -77.4061 197° South 428 493 40,000  Level Washington Center
Sat 05:24:02 PM 34.5956 -77.4514 198° South 428 493 40,000  Level Washington Center
Sat 05:25:02 PM 34.4842 -77.4944 198° South 428 493 40,000  Level Washington Center
Sat 05:26:03 PM 34.3750 -77.5369 198° South 428 493 40,000  Level Washington Center
Sat 05:27:43 PM 34.1867 -77.6086 197° South 416 479 40,000  Level Jacksonville Center
Sat 05:28:43 PM 34.0736 -77.6481 196° South 416 479 40,000  Level Jacksonville Center
Sat 05:29:43 PM 33.9631 -77.6947 199° South 416 479 40,000  Level Jacksonville Center
Sat 05:30:43 PM 33.8561 -77.7336 197° South 411 473 40,000  Level Jacksonville Center
Sat 05:31:43 PM 33.7472 -77.7725 197° South 411 473 40,000  Level Jacksonville Center
Sat 05:32:43 PM 33.6364 -77.8189 199° South 416 479 40,000  Level Jacksonville Center
Sat 05:33:43 PM 33.5294 -77.8572 197° South 416 479 40,000  Level Jacksonville Center
Sat 05:34:43 PM 33.4183 -77.9011 198° South 416 479 40,000  Level Jacksonville Center
Sat 05:35:43 PM 33.3075 -77.9419 197° South 416 479 40,000  Level Jacksonville Center
Sat 05:36:43 PM 33.1983 -77.9853 198° South 416 479 40,000  Level Jacksonville Center
Sat 05:37:43 PM 33.0894 -78.0236 196° South 416 479 40,000  Level Jacksonville Center
Sat 05:38:43 PM 32.9825 -78.0664 199° South 416 479 40,000  Level Jacksonville Center
Sat 05:39:43 PM 32.8711 -78.1019 195° South 416 479 40,000  Level Jacksonville Center
Sat 05:40:43 PM 32.7664 -78.1447 199° South 411 473 40,000  Level Jacksonville Center
Sat 05:41:43 PM 32.6592 -78.1847 197° South 411 473 40,000  Level Jacksonville Center
Sat 05:42:43 PM 32.5500 -78.2225 196° South 411 473 40,000  Level Jacksonville Center
Sat 05:43:43 PM 32.4431 -78.2625 198° South 411 473 40,000  Level Jacksonville Center
Sat 05:44:43 PM 32.3236 -78.3103 199° South 421 484 40,000  Level Jacksonville Center
Sat 05:45:43 PM 32.2167 -78.3500 197° South 416 479 40,000  Level Jacksonville Center
Sat 05:46:43 PM 32.1075 -78.3897 197° South 416 479 40,000  Level Jacksonville Center
Sat 05:47:43 PM 32.0003 -78.4294 197° South 416 479 40,000  Level Jacksonville Center
Sat 05:48:43 PM 31.8931 -78.4689 197° South 416 479 40,000  Level Jacksonville Center
Sat 05:49:43 PM 31.7858 -78.5081 197° South 415 478 40,000  Level Jacksonville Center
Sat 05:50:43 PM 31.6767 -78.5500 198° South 410 472 40,000  Level Jacksonville Center
Sat 05:51:43 PM 31.5714 -78.5864 196° South 403 464 40,000  Level Jacksonville Center
Sat 05:52:43 PM 31.4642 -78.6256 197° South 392 451 40,000  Level Jacksonville Center
Sat 05:53:43 PM 31.3550 -78.6647 197° South 401 461 40,000  Level Jacksonville Center
Sat 05:54:43 PM 31.2519 -78.7033 198° South 408 470 40,000  Level Jacksonville Center
Sat 05:55:43 PM 31.1569 -78.7367 197° South 402 463 40,000  Level Jacksonville Center
Sat 05:56:43 PM 31.0497 -78.7753 197° South 397 457 40,000  Level Jacksonville Center
Sat 05:57:43 PM 30.9422 -78.8114 196° South 397 457 40,000 -50 Level Jacksonville Center
Sat 05:58:43 PM 30.8392 -78.8497 198° South 397 457 39,900  Descending Jacksonville Center
Sat 05:59:43 PM 30.7378 -78.8831 196° South 397 457 40,000 47 Climbing Jacksonville Center
Sat 06:00:50 PM 30.6114 -78.9278 197° South 405 466 40,000  Level Miami Center
Sat 06:01:50 PM 30.5086 -78.9667 198° South 399 459 40,000  Level Miami Center
Sat 06:02:50 PM 30.3997 -79.0031 196° South 393 452 40,000  Level Miami Center
Sat 06:03:50 PM 30.3072 -79.0564 206° Southwest 393 452 40,000  Level Miami Center
Sat 06:04:50 PM 30.2206 -79.1242 214° Southwest 380 437 40,000  Level Miami Center
Sat 06:05:50 PM 30.1383 -79.1919 215° Southwest 380 437 40,000  Level Miami Center
Sat 06:06:50 PM 30.0475 -79.2594 213° Southwest 380 437 40,000  Level Miami Center
Sat 06:07:50 PM 29.9733 -79.3247 217° Southwest 380 437 40,000 -50 Level Miami Center
Sat 06:08:50 PM 29.8742 -79.3944 211° Southwest 380 437 39,900 -550 Descending Miami Center
Sat 06:09:50 PM 29.7875 -79.4617 214° Southwest 385 443 38,900 -900 Descending Miami Center
Sat 06:10:50 PM 29.7092 -79.5314 218° Southwest 385 443 38,100 -900 Descending Miami Center
Sat 06:11:50 PM 29.6222 -79.5961 213° Southwest 385 443 37,100 -950 Descending Miami Center
Sat 06:12:50 PM 29.5356 -79.6656 215° Southwest 385 443 36,200 -950 Descending Miami Center
Sat 06:13:50 PM 29.4486 -79.7300 213° Southwest 385 443 35,200 -1,000 Descending Miami Center
Sat 06:14:50 PM 29.3617 -79.7967 214° Southwest 379 436 34,200 -1,250 Descending Miami Center
Sat 06:15:50 PM 29.2708 -79.8608 212° Southwest 384 442 32,700 -2,400 Descending Miami Center
Sat 06:16:50 PM 29.1817 -79.9297 214° Southwest 390 449 29,400 -3,250 Descending Miami Center
Sat 06:17:50 PM 29.0819 -80.0078 214° Southwest 408 470 26,200 -3,050 Descending Miami Center
Sat 06:18:50 PM 28.9844 -80.0808 213° Southwest 424 488 23,300 -2,850 Descending Miami Center
Sat 06:19:50 PM 28.9072 -80.1664 224° Southwest 424 488 20,500 -2,950 Descending Miami Center
Sat 06:20:50 PM 28.8750 -80.2933 254° West 380 437 17,400 -2,500 Descending Miami Center
Sat 06:22:26 PM 28.8333 -80.4667 255° West 353 406 14,000 -1,308 Descending Orlando TRACON
Sat 06:23:26 PM 28.8167 -80.5667 259° West 352 405 14,000 -450 Level Orlando TRACON
Sat 06:24:26 PM 28.7833 -80.6667 249° West 354 407 13,100 -1,250 Descending Orlando TRACON
Sat 06:25:26 PM 28.7333 -80.7667 240° Southwest 343 395 11,500 -1,500 Descending Orlando TRACON
Sat 06:26:26 PM 28.6833 -80.8667 240° Southwest 344 396 10,100 -750 Descending Orlando TRACON
Sat 06:27:26 PM 28.6500 -80.9667 249° West 333 383 10,000 -350 Descending Orlando TRACON
Sat 06:28:26 PM 28.5833 -81.0167 213° Southwest 284 327 9,400 -850 Descending Orlando TRACON
Sat 06:29:26 PM 28.5167 -81.0667 213° Southwest 275 316 8,300 -1,050 Descending Orlando TRACON
Sat 06:30:26 PM 28.4667 -81.1167 221° Southwest 233 268 7,300 -1,286 Descending Orlando TRACON
Sat 06:31:32 PM 28.4167 -81.1667 221° Southwest 224 258 5,600 -1,571 Descending Orlando TRACON
Sat 06:32:32 PM 28.3500 -81.1833 192° South 217 250 4,000 -1,800 Descending Orlando TRACON
Sat 06:33:32 PM 28.3000 -81.2167 210° Southwest 217 250 2,000 -1,200 Descending Orlando TRACON
Sat 06:34:32 PM 28.3333 -81.2500 319° Northwest 178 205 1,600 -368 Descending Orlando TRACON
Sat 06:35:26 PM 28.3500 -81.2833 300° West 140 161 1,300 -550 Descending Orlando TRACON
Sat 06:36:32 PM 28.4000 -81.2833 360° North 131 151 500 -727 Descending Orlando TRACON

Login

Don't have an account? Register now (free) for customized features, flight alerts, and more!